Translated METAR

78.3 °F / 25.7 °C
E at 5 MPH
86%
73.9°F / 23.3 °C
29.79" (1008 mb)
10 mile(s)
partly cloudy
2021.09.21 1620 UTC

Translated METAR

Kwajalein, Bucholz AAF, Kwajalein KMR ATOL Airport, Marshall Islands (PKWA) 08-43N 167-44E 2M
Sep 21, 2021 - 12:20 PM EDT / 2021.09.21 1620 UTC
Wind: from the E (100 degrees) at 5 MPH (4 KT):0
Visibility: 10 mile(s):0
Sky conditions: partly cloudy
Weather: light rain
Temperature: 78.3 F (25.7 C)
Dew Point: 73.9 F (23.3 C)
Relative Humidity: 86%
Pressure (altimeter): 29.79 in. Hg (1008 hPa)
ob: PKWA 211620Z AUTO 10004KT 10SM -RA SCT050 SCT070 SCT090 26/23 A2979 RMK AO2 T02570233
cycle: 16